sensor_id;sensor_type;location;lat;lon;timestamp;temperature;humidity
23124;DHT22;11731;48.592;8.858;2022-11-15T00:00:41;9.90;99.90
23124;DHT22;11731;48.592;8.858;2022-11-15T00:03:23;9.70;99.90
23124;DHT22;11731;48.592;8.858;2022-11-15T00:05:53;9.60;99.90
23124;DHT22;11731;48.592;8.858;2022-11-15T00:18:43;8.60;99.90
23124;DHT22;11731;48.592;8.858;2022-11-15T00:21:15;8.20;99.90
23124;DHT22;11731;48.592;8.858;2022-11-15T00:23:50;7.80;99.90
23124;DHT22;11731;48.592;8.858;2022-11-15T00:26:28;8.10;99.90
23124;DHT22;11731;48.592;8.858;2022-11-15T00:42:54;9.00;99.90
23124;DHT22;11731;48.592;8.858;2022-11-15T00:45:22;9.10;99.90
23124;DHT22;11731;48.592;8.858;2022-11-15T00:49:00;9.20;99.90
23124;DHT22;11731;48.592;8.858;2022-11-15T00:51:20;9.20;99.90
23124;DHT22;11731;48.592;8.858;2022-11-15T00:53:47;9.40;99.90
23124;DHT22;11731;48.592;8.858;2022-11-15T00:56:14;9.40;99.90
23124;DHT22;11731;48.592;8.858;2022-11-15T00:58:42;9.40;99.90
23124;DHT22;11731;48.592;8.858;2022-11-15T01:01:11;9.30;99.90
23124;DHT22;11731;48.592;8.858;2022-11-15T01:03:39;9.40;99.90
23124;DHT22;11731;48.592;8.858;2022-11-15T01:06:41;9.50;99.90
23124;DHT22;11731;48.592;8.858;2022-11-15T01:09:08;9.40;99.90
23124;DHT22;11731;48.592;8.858;2022-11-15T01:12:38;9.30;99.90
23124;DHT22;11731;48.592;8.858;2022-11-15T01:14:38;9.40;99.90
23124;DHT22;11731;48.592;8.858;2022-11-15T01:20:32;9.40;99.90
23124;DHT22;11731;48.592;8.858;2022-11-15T01:22:59;9.30;99.90
23124;DHT22;11731;48.592;8.858;2022-11-15T01:25:25;9.40;99.90
23124;DHT22;11731;48.592;8.858;2022-11-15T01:27:52;9.50;99.90
23124;DHT22;11731;48.592;8.858;2022-11-15T01:33:39;9.50;99.90
23124;DHT22;11731;48.592;8.858;2022-11-15T01:36:07;9.60;99.90
23124;DHT22;11731;48.592;8.858;2022-11-15T01:38:34;9.50;99.90
23124;DHT22;11731;48.592;8.858;2022-11-15T01:41:02;9.60;99.90
23124;DHT22;11731;48.592;8.858;2022-11-15T01:43:30;9.70;99.90
23124;DHT22;11731;48.592;8.858;2022-11-15T01:46:02;9.80;99.90
23124;DHT22;11731;48.592;8.858;2022-11-15T01:48:33;9.70;99.90
23124;DHT22;11731;48.592;8.858;2022-11-15T01:51:08;9.80;99.90
23124;DHT22;11731;48.592;8.858;2022-11-15T01:53:39;9.90;99.90
23124;DHT22;11731;48.592;8.858;2022-11-15T01:56:12;9.90;99.90
23124;DHT22;11731;48.592;8.858;2022-11-15T01:58:41;9.90;99.90
23124;DHT22;11731;48.592;8.858;2022-11-15T02:01:09;9.90;99.90
23124;DHT22;11731;48.592;8.858;2022-11-15T02:03:42;9.90;99.90
23124;DHT22;11731;48.592;8.858;2022-11-15T02:06:15;9.90;99.90
23124;DHT22;11731;48.592;8.858;2022-11-15T02:08:43;9.80;99.90
23124;DHT22;11731;48.592;8.858;2022-11-15T02:11:10;9.90;99.90
23124;DHT22;11731;48.592;8.858;2022-11-15T02:13:37;10.00;99.90
23124;DHT22;11731;48.592;8.858;2022-11-15T02:16:11;10.00;99.90
23124;DHT22;11731;48.592;8.858;2022-11-15T02:18:44;9.70;99.90
23124;DHT22;11731;48.592;8.858;2022-11-15T02:21:20;9.70;99.90
23124;DHT22;11731;48.592;8.858;2022-11-15T02:29:07;9.70;99.90
23124;DHT22;11731;48.592;8.858;2022-11-15T02:31:11;9.90;99.90
23124;DHT22;11731;48.592;8.858;2022-11-15T02:33:47;9.80;99.90
23124;DHT22;11731;48.592;8.858;2022-11-15T02:36:26;9.70;99.90
23124;DHT22;11731;48.592;8.858;2022-11-15T02:38:59;9.70;99.90
23124;DHT22;11731;48.592;8.858;2022-11-15T02:41:35;9.90;99.90
23124;DHT22;11731;48.592;8.858;2022-11-15T02:44:07;9.90;99.90
23124;DHT22;11731;48.592;8.858;2022-11-15T02:46:41;10.00;99.90
23124;DHT22;11731;48.592;8.858;2022-11-15T02:50:31;10.10;99.90
23124;DHT22;11731;48.592;8.858;2022-11-15T02:52:51;10.10;99.90
23124;DHT22;11731;48.592;8.858;2022-11-15T02:55:46;10.30;99.90
23124;DHT22;11731;48.592;8.858;2022-11-15T02:58:33;10.20;99.90
23124;DHT22;11731;48.592;8.858;2022-11-15T03:01:07;10.10;99.90
23124;DHT22;11731;48.592;8.858;2022-11-15T03:03:47;10.10;99.90
23124;DHT22;11731;48.592;8.858;2022-11-15T03:06:22;10.20;99.90
23124;DHT22;11731;48.592;8.858;2022-11-15T03:09:28;10.20;99.90
23124;DHT22;11731;48.592;8.858;2022-11-15T03:15:36;9.70;99.90
23124;DHT22;11731;48.592;8.858;2022-11-15T03:18:12;9.50;99.90
23124;DHT22;11731;48.592;8.858;2022-11-15T03:20:42;9.10;99.90
23124;DHT22;11731;48.592;8.858;2022-11-15T03:24:08;8.90;99.90
23124;DHT22;11731;48.592;8.858;2022-11-15T03:26:30;9.00;99.90
23124;DHT22;11731;48.592;8.858;2022-11-15T03:29:02;9.40;99.90
23124;DHT22;11731;48.592;8.858;2022-11-15T03:31:33;9.60;99.90
23124;DHT22;11731;48.592;8.858;2022-11-15T03:34:22;9.80;99.90
23124;DHT22;11731;48.592;8.858;2022-11-15T03:36:52;9.90;99.90
23124;DHT22;11731;48.592;8.858;2022-11-15T03:39:20;10.00;99.90
23124;DHT22;11731;48.592;8.858;2022-11-15T03:41:53;10.00;99.90
23124;DHT22;11731;48.592;8.858;2022-11-15T03:47:54;10.00;99.90
23124;DHT22;11731;48.592;8.858;2022-11-15T03:50:25;10.00;99.90
23124;DHT22;11731;48.592;8.858;2022-11-15T03:52:54;10.10;99.90
23124;DHT22;11731;48.592;8.858;2022-11-15T03:55:22;10.10;99.90
23124;DHT22;11731;48.592;8.858;2022-11-15T03:57:53;10.10;99.90
23124;DHT22;11731;48.592;8.858;2022-11-15T04:00:20;10.10;99.90
23124;DHT22;11731;48.592;8.858;2022-11-15T04:02:47;10.10;99.90
23124;DHT22;11731;48.592;8.858;2022-11-15T04:05:14;10.20;99.90
23124;DHT22;11731;48.592;8.858;2022-11-15T04:07:41;10.20;99.90
23124;DHT22;11731;48.592;8.858;2022-11-15T04:10:08;10.20;99.90
23124;DHT22;11731;48.592;8.858;2022-11-15T04:12:38;10.10;99.90
23124;DHT22;11731;48.592;8.858;2022-11-15T04:15:10;10.20;99.90
23124;DHT22;11731;48.592;8.858;2022-11-15T04:17:47;10.20;99.90
23124;DHT22;11731;48.592;8.858;2022-11-15T04:20:19;10.10;99.90
23124;DHT22;11731;48.592;8.858;2022-11-15T04:23:05;10.10;99.90
23124;DHT22;11731;48.592;8.858;2022-11-15T04:25:51;10.30;99.90
23124;DHT22;11731;48.592;8.858;2022-11-15T04:28:19;10.10;99.90
23124;DHT22;11731;48.592;8.858;2022-11-15T04:30:47;10.20;99.90
23124;DHT22;11731;48.592;8.858;2022-11-15T04:33:14;10.20;99.90
23124;DHT22;11731;48.592;8.858;2022-11-15T04:35:42;10.20;99.90
23124;DHT22;11731;48.592;8.858;2022-11-15T04:38:29;10.20;99.90
23124;DHT22;11731;48.592;8.858;2022-11-15T04:40:55;10.10;99.90
23124;DHT22;11731;48.592;8.858;2022-11-15T04:43:22;10.00;99.90
23124;DHT22;11731;48.592;8.858;2022-11-15T04:45:51;9.80;99.90
23124;DHT22;11731;48.592;8.858;2022-11-15T04:48:18;9.70;99.90
23124;DHT22;11731;48.592;8.858;2022-11-15T04:50:47;9.80;99.90
23124;DHT22;11731;48.592;8.858;2022-11-15T04:53:14;10.00;99.90
23124;DHT22;11731;48.592;8.858;2022-11-15T04:55:44;10.10;99.90
23124;DHT22;11731;48.592;8.858;2022-11-15T04:58:11;10.20;99.90
23124;DHT22;11731;48.592;8.858;2022-11-15T05:00:38;10.10;99.90
23124;DHT22;11731;48.592;8.858;2022-11-15T05:03:08;10.30;99.90
23124;DHT22;11731;48.592;8.858;2022-11-15T05:05:52;10.60;99.90
23124;DHT22;11731;48.592;8.858;2022-11-15T05:08:19;10.40;99.90
23124;DHT22;11731;48.592;8.858;2022-11-15T05:10:47;10.40;99.90
23124;DHT22;11731;48.592;8.858;2022-11-15T05:13:14;10.40;99.90
23124;DHT22;11731;48.592;8.858;2022-11-15T05:15:55;10.30;99.90
23124;DHT22;11731;48.592;8.858;2022-11-15T05:18:23;10.30;99.90
23124;DHT22;11731;48.592;8.858;2022-11-15T05:20:50;10.30;99.90
23124;DHT22;11731;48.592;8.858;2022-11-15T05:23:17;10.30;99.90
23124;DHT22;11731;48.592;8.858;2022-11-15T05:25:44;10.40;99.90
23124;DHT22;11731;48.592;8.858;2022-11-15T05:28:12;10.40;99.90
23124;DHT22;11731;48.592;8.858;2022-11-15T05:30:39;10.40;99.90
23124;DHT22;11731;48.592;8.858;2022-11-15T05:33:06;10.20;99.90
23124;DHT22;11731;48.592;8.858;2022-11-15T05:35:39;10.30;99.90
23124;DHT22;11731;48.592;8.858;2022-11-15T05:38:08;10.30;99.90
23124;DHT22;11731;48.592;8.858;2022-11-15T05:40:35;10.30;99.90
23124;DHT22;11731;48.592;8.858;2022-11-15T05:43:03;10.30;99.90
23124;DHT22;11731;48.592;8.858;2022-11-15T05:45:31;10.20;99.90
23124;DHT22;11731;48.592;8.858;2022-11-15T05:48:00;10.20;99.90
23124;DHT22;11731;48.592;8.858;2022-11-15T05:50:31;10.10;99.90
23124;DHT22;11731;48.592;8.858;2022-11-15T05:53:00;10.20;99.90
23124;DHT22;11731;48.592;8.858;2022-11-15T05:55:28;10.00;99.90
23124;DHT22;11731;48.592;8.858;2022-11-15T05:57:55;9.80;99.90
23124;DHT22;11731;48.592;8.858;2022-11-15T06:00:22;9.70;99.90
23124;DHT22;11731;48.592;8.858;2022-11-15T06:02:49;9.80;99.90
23124;DHT22;11731;48.592;8.858;2022-11-15T06:05:16;9.90;99.90
23124;DHT22;11731;48.592;8.858;2022-11-15T06:07:42;10.10;99.90
23124;DHT22;11731;48.592;8.858;2022-11-15T06:10:11;10.00;99.90
23124;DHT22;11731;48.592;8.858;2022-11-15T06:12:38;10.20;99.90
23124;DHT22;11731;48.592;8.858;2022-11-15T06:15:06;9.80;99.90
23124;DHT22;11731;48.592;8.858;2022-11-15T06:17:33;9.70;99.90
23124;DHT22;11731;48.592;8.858;2022-11-15T06:20:00;9.50;99.90
23124;DHT22;11731;48.592;8.858;2022-11-15T06:22:27;9.50;99.90
23124;DHT22;11731;48.592;8.858;2022-11-15T06:24:54;9.60;99.90
23124;DHT22;11731;48.592;8.858;2022-11-15T06:27:22;9.70;99.90
23124;DHT22;11731;48.592;8.858;2022-11-15T06:29:49;9.90;99.90
23124;DHT22;11731;48.592;8.858;2022-11-15T06:32:16;10.00;99.90
23124;DHT22;11731;48.592;8.858;2022-11-15T06:34:43;9.80;99.90
23124;DHT22;11731;48.592;8.858;2022-11-15T06:37:10;9.90;99.90
23124;DHT22;11731;48.592;8.858;2022-11-15T06:39:44;9.90;99.90
23124;DHT22;11731;48.592;8.858;2022-11-15T06:42:11;9.90;99.90
23124;DHT22;11731;48.592;8.858;2022-11-15T06:44:39;9.80;99.90
23124;DHT22;11731;48.592;8.858;2022-11-15T06:47:06;9.80;99.90
23124;DHT22;11731;48.592;8.858;2022-11-15T06:49:33;9.80;99.90
23124;DHT22;11731;48.592;8.858;2022-11-15T06:52:00;9.70;99.90
23124;DHT22;11731;48.592;8.858;2022-11-15T06:54:27;9.60;99.90
23124;DHT22;11731;48.592;8.858;2022-11-15T06:57:09;9.30;99.90
23124;DHT22;11731;48.592;8.858;2022-11-15T06:59:47;9.30;99.90
23124;DHT22;11731;48.592;8.858;2022-11-15T07:02:14;9.20;99.90
23124;DHT22;11731;48.592;8.858;2022-11-15T07:04:41;9.10;99.90
23124;DHT22;11731;48.592;8.858;2022-11-15T07:07:07;9.20;99.90
23124;DHT22;11731;48.592;8.858;2022-11-15T07:09:34;9.50;99.90
23124;DHT22;11731;48.592;8.858;2022-11-15T07:12:01;9.70;99.90
23124;DHT22;11731;48.592;8.858;2022-11-15T07:14:29;9.70;99.90
23124;DHT22;11731;48.592;8.858;2022-11-15T07:16:57;9.60;99.90
23124;DHT22;11731;48.592;8.858;2022-11-15T07:19:24;9.70;99.90
23124;DHT22;11731;48.592;8.858;2022-11-15T07:21:51;9.80;99.90
23124;DHT22;11731;48.592;8.858;2022-11-15T07:24:18;9.80;99.90
23124;DHT22;11731;48.592;8.858;2022-11-15T07:26:45;10.00;99.90
23124;DHT22;11731;48.592;8.858;2022-11-15T07:29:12;10.10;99.90
23124;DHT22;11731;48.592;8.858;2022-11-15T07:31:39;10.40;99.90
23124;DHT22;11731;48.592;8.858;2022-11-15T07:34:07;10.50;99.90
23124;DHT22;11731;48.592;8.858;2022-11-15T07:36:35;10.40;99.90
23124;DHT22;11731;48.592;8.858;2022-11-15T07:39:14;10.60;99.90
23124;DHT22;11731;48.592;8.858;2022-11-15T07:41:41;10.60;99.90
23124;DHT22;11731;48.592;8.858;2022-11-15T07:44:18;10.50;99.90
23124;DHT22;11731;48.592;8.858;2022-11-15T07:46:45;10.60;99.90
23124;DHT22;11731;48.592;8.858;2022-11-15T07:49:13;10.80;99.90
23124;DHT22;11731;48.592;8.858;2022-11-15T07:51:40;10.90;99.90
23124;DHT22;11731;48.592;8.858;2022-11-15T07:54:07;11.00;99.90
23124;DHT22;11731;48.592;8.858;2022-11-15T07:56:34;10.90;99.90
23124;DHT22;11731;48.592;8.858;2022-11-15T07:59:01;11.00;99.90
23124;DHT22;11731;48.592;8.858;2022-11-15T08:01:28;10.80;99.90
23124;DHT22;11731;48.592;8.858;2022-11-15T08:03:57;10.80;99.90
23124;DHT22;11731;48.592;8.858;2022-11-15T08:06:25;11.00;99.90
23124;DHT22;11731;48.592;8.858;2022-11-15T08:08:52;11.30;99.90
23124;DHT22;11731;48.592;8.858;2022-11-15T08:11:19;11.50;99.90
23124;DHT22;11731;48.592;8.858;2022-11-15T08:13:46;11.80;99.90
23124;DHT22;11731;48.592;8.858;2022-11-15T08:16:13;12.10;99.90
23124;DHT22;11731;48.592;8.858;2022-11-15T08:18:40;12.20;99.90
23124;DHT22;11731;48.592;8.858;2022-11-15T08:21:09;12.20;99.90
23124;DHT22;11731;48.592;8.858;2022-11-15T08:23:38;12.30;99.90
23124;DHT22;11731;48.592;8.858;2022-11-15T08:26:05;12.30;99.90
23124;DHT22;11731;48.592;8.858;2022-11-15T08:28:32;12.70;99.90
23124;DHT22;11731;48.592;8.858;2022-11-15T08:30:59;13.10;99.90
23124;DHT22;11731;48.592;8.858;2022-11-15T08:33:27;13.40;99.90
23124;DHT22;11731;48.592;8.858;2022-11-15T08:35:56;13.50;99.90
23124;DHT22;11731;48.592;8.858;2022-11-15T08:38:24;13.40;99.90
23124;DHT22;11731;48.592;8.858;2022-11-15T08:40:53;13.50;99.90
23124;DHT22;11731;48.592;8.858;2022-11-15T08:43:25;13.70;99.90
23124;DHT22;11731;48.592;8.858;2022-11-15T08:45:55;13.90;99.90
23124;DHT22;11731;48.592;8.858;2022-11-15T08:48:22;14.20;99.90
23124;DHT22;11731;48.592;8.858;2022-11-15T08:50:53;14.00;99.90
23124;DHT22;11731;48.592;8.858;2022-11-15T08:53:20;14.10;99.90
23124;DHT22;11731;48.592;8.858;2022-11-15T08:55:47;14.30;99.90
23124;DHT22;11731;48.592;8.858;2022-11-15T08:58:15;14.70;99.90
23124;DHT22;11731;48.592;8.858;2022-11-15T09:00:42;14.70;99.90
23124;DHT22;11731;48.592;8.858;2022-11-15T09:03:09;14.80;99.90
23124;DHT22;11731;48.592;8.858;2022-11-15T09:05:36;14.60;99.90
23124;DHT22;11731;48.592;8.858;2022-11-15T09:08:04;14.60;99.90
23124;DHT22;11731;48.592;8.858;2022-11-15T09:10:31;14.60;99.90
23124;DHT22;11731;48.592;8.858;2022-11-15T09:13:17;14.60;99.90
23124;DHT22;11731;48.592;8.858;2022-11-15T09:15:45;14.70;99.90
23124;DHT22;11731;48.592;8.858;2022-11-15T09:18:12;14.60;99.90
23124;DHT22;11731;48.592;8.858;2022-11-15T09:20:39;14.80;99.90
23124;DHT22;11731;48.592;8.858;2022-11-15T09:23:06;14.80;99.90
23124;DHT22;11731;48.592;8.858;2022-11-15T09:25:33;14.90;99.90
23124;DHT22;11731;48.592;8.858;2022-11-15T09:28:00;15.10;99.90
23124;DHT22;11731;48.592;8.858;2022-11-15T09:30:27;15.20;99.90
23124;DHT22;11731;48.592;8.858;2022-11-15T09:32:55;15.00;99.90
23124;DHT22;11731;48.592;8.858;2022-11-15T09:35:22;15.30;99.90
23124;DHT22;11731;48.592;8.858;2022-11-15T09:38:16;15.50;99.90
23124;DHT22;11731;48.592;8.858;2022-11-15T09:40:43;15.70;99.90
23124;DHT22;11731;48.592;8.858;2022-11-15T09:43:28;15.60;99.90
23124;DHT22;11731;48.592;8.858;2022-11-15T09:46:04;15.30;99.90
23124;DHT22;11731;48.592;8.858;2022-11-15T09:48:49;15.50;99.90
23124;DHT22;11731;48.592;8.858;2022-11-15T09:51:30;15.60;99.90
23124;DHT22;11731;48.592;8.858;2022-11-15T09:54:15;15.80;99.90
23124;DHT22;11731;48.592;8.858;2022-11-15T09:56:44;15.80;99.90
23124;DHT22;11731;48.592;8.858;2022-11-15T09:59:35;15.30;99.90
23124;DHT22;11731;48.592;8.858;2022-11-15T10:05:22;14.80;99.90
23124;DHT22;11731;48.592;8.858;2022-11-15T10:07:54;14.60;99.90
23124;DHT22;11731;48.592;8.858;2022-11-15T10:13:33;14.60;99.90
23124;DHT22;11731;48.592;8.858;2022-11-15T10:16:07;14.50;99.90
23124;DHT22;11731;48.592;8.858;2022-11-15T10:18:40;14.50;99.90
23124;DHT22;11731;48.592;8.858;2022-11-15T10:30:59;15.20;99.90
23124;DHT22;11731;48.592;8.858;2022-11-15T10:33:32;15.40;99.90
23124;DHT22;11731;48.592;8.858;2022-11-15T10:36:20;15.20;99.90
23124;DHT22;11731;48.592;8.858;2022-11-15T10:41:49;14.90;99.90
23124;DHT22;11731;48.592;8.858;2022-11-15T10:44:22;14.90;99.90
23124;DHT22;11731;48.592;8.858;2022-11-15T10:50:28;14.90;99.90
23124;DHT22;11731;48.592;8.858;2022-11-15T10:53:17;14.90;99.90
23124;DHT22;11731;48.592;8.858;2022-11-15T10:55:47;15.00;99.90
23124;DHT22;11731;48.592;8.858;2022-11-15T10:58:22;15.00;99.90
23124;DHT22;11731;48.592;8.858;2022-11-15T11:00:54;15.00;99.90
23124;DHT22;11731;48.592;8.858;2022-11-15T11:03:28;15.20;99.90
23124;DHT22;11731;48.592;8.858;2022-11-15T11:06:09;15.10;99.90
23124;DHT22;11731;48.592;8.858;2022-11-15T11:08:37;15.20;99.90
23124;DHT22;11731;48.592;8.858;2022-11-15T11:11:05;15.40;99.90
23124;DHT22;11731;48.592;8.858;2022-11-15T11:13:34;15.40;99.90
23124;DHT22;11731;48.592;8.858;2022-11-15T11:16:34;15.60;99.90
23124;DHT22;11731;48.592;8.858;2022-11-15T11:22:22;15.80;99.90
23124;DHT22;11731;48.592;8.858;2022-11-15T11:25:16;15.80;99.90
23124;DHT22;11731;48.592;8.858;2022-11-15T11:28:12;15.70;99.90
23124;DHT22;11731;48.592;8.858;2022-11-15T11:30:49;15.80;99.90
23124;DHT22;11731;48.592;8.858;2022-11-15T11:39:43;16.20;99.90
23124;DHT22;11731;48.592;8.858;2022-11-15T11:42:16;16.10;99.90
23124;DHT22;11731;48.592;8.858;2022-11-15T11:45:14;15.90;99.90
23124;DHT22;11731;48.592;8.858;2022-11-15T11:47:47;15.80;99.90
23124;DHT22;11731;48.592;8.858;2022-11-15T11:50:18;15.90;99.90
23124;DHT22;11731;48.592;8.858;2022-11-15T11:59:33;16.40;99.90
23124;DHT22;11731;48.592;8.858;2022-11-15T12:02:14;16.30;99.90
23124;DHT22;11731;48.592;8.858;2022-11-15T12:04:45;16.30;99.90
23124;DHT22;11731;48.592;8.858;2022-11-15T12:07:17;16.40;99.90
23124;DHT22;11731;48.592;8.858;2022-11-15T12:09:52;16.30;99.90
23124;DHT22;11731;48.592;8.858;2022-11-15T12:12:31;16.00;99.90
23124;DHT22;11731;48.592;8.858;2022-11-15T12:15:09;16.00;99.90
23124;DHT22;11731;48.592;8.858;2022-11-15T12:17:43;15.90;99.90
23124;DHT22;11731;48.592;8.858;2022-11-15T12:20:16;16.00;99.90
23124;DHT22;11731;48.592;8.858;2022-11-15T12:25:49;16.10;99.90
23124;DHT22;11731;48.592;8.858;2022-11-15T12:28:46;16.70;99.90
23124;DHT22;11731;48.592;8.858;2022-11-15T12:31:41;17.00;99.90
23124;DHT22;11731;48.592;8.858;2022-11-15T12:34:41;17.00;99.90
23124;DHT22;11731;48.592;8.858;2022-11-15T12:37:50;16.90;99.90
23124;DHT22;11731;48.592;8.858;2022-11-15T12:40:31;17.20;99.90
23124;DHT22;11731;48.592;8.858;2022-11-15T12:49:51;16.80;99.90
23124;DHT22;11731;48.592;8.858;2022-11-15T12:52:20;16.90;99.90
23124;DHT22;11731;48.592;8.858;2022-11-15T12:55:01;16.90;99.90
23124;DHT22;11731;48.592;8.858;2022-11-15T12:57:42;16.90;99.90
23124;DHT22;11731;48.592;8.858;2022-11-15T13:06:09;17.50;99.90
23124;DHT22;11731;48.592;8.858;2022-11-15T13:08:48;17.40;99.90
23124;DHT22;11731;48.592;8.858;2022-11-15T13:11:49;17.30;99.90
23124;DHT22;11731;48.592;8.858;2022-11-15T13:14:46;17.30;99.90
23124;DHT22;11731;48.592;8.858;2022-11-15T13:17:24;17.10;99.90
23124;DHT22;11731;48.592;8.858;2022-11-15T13:20:11;16.80;99.90
23124;DHT22;11731;48.592;8.858;2022-11-15T13:22:50;16.60;99.90
23124;DHT22;11731;48.592;8.858;2022-11-15T13:28:33;16.70;99.90
23124;DHT22;11731;48.592;8.858;2022-11-15T13:31:22;16.50;99.90
23124;DHT22;11731;48.592;8.858;2022-11-15T13:33:50;17.00;99.90
23124;DHT22;11731;48.592;8.858;2022-11-15T13:36:22;17.10;99.90
23124;DHT22;11731;48.592;8.858;2022-11-15T13:38:55;17.30;99.90
23124;DHT22;11731;48.592;8.858;2022-11-15T13:41:24;17.30;99.90
23124;DHT22;11731;48.592;8.858;2022-11-15T13:43:53;17.00;99.90
23124;DHT22;11731;48.592;8.858;2022-11-15T13:46:21;16.90;99.90
23124;DHT22;11731;48.592;8.858;2022-11-15T13:48:53;17.10;99.90
23124;DHT22;11731;48.592;8.858;2022-11-15T13:51:42;17.30;99.90
23124;DHT22;11731;48.592;8.858;2022-11-15T13:54:17;17.30;99.90
23124;DHT22;11731;48.592;8.858;2022-11-15T13:56:47;17.50;99.90
23124;DHT22;11731;48.592;8.858;2022-11-15T13:59:18;17.40;99.90
23124;DHT22;11731;48.592;8.858;2022-11-15T14:01:50;17.40;99.90
23124;DHT22;11731;48.592;8.858;2022-11-15T14:04:39;17.20;99.90
23124;DHT22;11731;48.592;8.858;2022-11-15T14:07:28;17.10;99.90
23124;DHT22;11731;48.592;8.858;2022-11-15T14:09:56;16.60;99.90
23124;DHT22;11731;48.592;8.858;2022-11-15T14:12:29;16.50;99.90
23124;DHT22;11731;48.592;8.858;2022-11-15T14:14:58;16.30;99.90
23124;DHT22;11731;48.592;8.858;2022-11-15T14:17:37;16.10;99.90
23124;DHT22;11731;48.592;8.858;2022-11-15T14:24:21;15.70;99.90
23124;DHT22;11731;48.592;8.858;2022-11-15T14:26:52;15.60;99.90
23124;DHT22;11731;48.592;8.858;2022-11-15T14:30:55;15.80;99.90
23124;DHT22;11731;48.592;8.858;2022-11-15T14:32:50;15.80;99.90
23124;DHT22;11731;48.592;8.858;2022-11-15T14:35:19;15.80;99.90
23124;DHT22;11731;48.592;8.858;2022-11-15T14:37:47;16.00;99.90
23124;DHT22;11731;48.592;8.858;2022-11-15T14:40:17;16.00;99.90
23124;DHT22;11731;48.592;8.858;2022-11-15T14:42:45;16.10;99.90
23124;DHT22;11731;48.592;8.858;2022-11-15T14:45:15;16.00;99.90
23124;DHT22;11731;48.592;8.858;2022-11-15T14:47:45;15.90;99.90
23124;DHT22;11731;48.592;8.858;2022-11-15T14:50:13;16.00;99.90
23124;DHT22;11731;48.592;8.858;2022-11-15T14:52:40;15.90;99.90
23124;DHT22;11731;48.592;8.858;2022-11-15T14:55:16;15.60;99.90
23124;DHT22;11731;48.592;8.858;2022-11-15T14:57:45;15.30;99.90
23124;DHT22;11731;48.592;8.858;2022-11-15T15:00:13;15.30;99.90
23124;DHT22;11731;48.592;8.858;2022-11-15T15:02:41;15.20;99.90
23124;DHT22;11731;48.592;8.858;2022-11-15T15:05:17;15.10;99.90
23124;DHT22;11731;48.592;8.858;2022-11-15T15:07:44;15.20;99.90
23124;DHT22;11731;48.592;8.858;2022-11-15T15:10:12;15.30;99.90
23124;DHT22;11731;48.592;8.858;2022-11-15T15:12:49;15.30;99.90
23124;DHT22;11731;48.592;8.858;2022-11-15T15:15:41;15.10;99.90
23124;DHT22;11731;48.592;8.858;2022-11-15T15:18:08;15.10;99.90
23124;DHT22;11731;48.592;8.858;2022-11-15T15:20:39;15.00;99.90
23124;DHT22;11731;48.592;8.858;2022-11-15T15:23:15;15.00;99.90
23124;DHT22;11731;48.592;8.858;2022-11-15T15:25:42;15.10;99.90
23124;DHT22;11731;48.592;8.858;2022-11-15T15:28:12;15.10;99.90
23124;DHT22;11731;48.592;8.858;2022-11-15T15:30:39;15.10;99.90
23124;DHT22;11731;48.592;8.858;2022-11-15T15:33:07;15.00;99.90
23124;DHT22;11731;48.592;8.858;2022-11-15T15:35:35;15.10;99.90
23124;DHT22;11731;48.592;8.858;2022-11-15T15:38:02;15.10;99.90
23124;DHT22;11731;48.592;8.858;2022-11-15T15:40:31;15.00;99.90
23124;DHT22;11731;48.592;8.858;2022-11-15T15:42:58;15.20;99.90
23124;DHT22;11731;48.592;8.858;2022-11-15T15:45:27;15.40;99.90
23124;DHT22;11731;48.592;8.858;2022-11-15T15:47:55;15.50;99.90
23124;DHT22;11731;48.592;8.858;2022-11-15T15:50:24;15.40;99.90
23124;DHT22;11731;48.592;8.858;2022-11-15T15:52:54;15.50;99.90
23124;DHT22;11731;48.592;8.858;2022-11-15T15:55:21;15.50;99.90
23124;DHT22;11731;48.592;8.858;2022-11-15T15:57:48;15.60;99.90
23124;DHT22;11731;48.592;8.858;2022-11-15T16:00:16;15.60;99.90
23124;DHT22;11731;48.592;8.858;2022-11-15T16:02:45;15.60;99.90
23124;DHT22;11731;48.592;8.858;2022-11-15T16:05:12;15.50;99.90
23124;DHT22;11731;48.592;8.858;2022-11-15T16:07:40;15.50;99.90
23124;DHT22;11731;48.592;8.858;2022-11-15T16:10:18;15.40;99.90
23124;DHT22;11731;48.592;8.858;2022-11-15T16:12:46;15.20;99.90
23124;DHT22;11731;48.592;8.858;2022-11-15T16:15:13;15.10;99.90
23124;DHT22;11731;48.592;8.858;2022-11-15T16:17:42;14.80;99.90
23124;DHT22;11731;48.592;8.858;2022-11-15T16:20:30;14.80;99.90
23124;DHT22;11731;48.592;8.858;2022-11-15T16:23:01;14.50;99.90
23124;DHT22;11731;48.592;8.858;2022-11-15T16:25:29;14.30;99.90
23124;DHT22;11731;48.592;8.858;2022-11-15T16:27:57;14.10;99.90
23124;DHT22;11731;48.592;8.858;2022-11-15T16:30:24;14.20;99.90
23124;DHT22;11731;48.592;8.858;2022-11-15T16:32:51;14.30;99.90
23124;DHT22;11731;48.592;8.858;2022-11-15T16:35:20;14.20;99.90
23124;DHT22;11731;48.592;8.858;2022-11-15T16:37:47;14.10;99.90
23124;DHT22;11731;48.592;8.858;2022-11-15T16:40:23;14.10;99.90
23124;DHT22;11731;48.592;8.858;2022-11-15T16:42:55;14.20;99.90
23124;DHT22;11731;48.592;8.858;2022-11-15T16:45:23;14.20;99.90
23124;DHT22;11731;48.592;8.858;2022-11-15T16:47:50;14.10;99.90
23124;DHT22;11731;48.592;8.858;2022-11-15T16:50:25;14.20;99.90
23124;DHT22;11731;48.592;8.858;2022-11-15T16:52:53;14.50;99.90
23124;DHT22;11731;48.592;8.858;2022-11-15T16:55:22;14.60;99.90
23124;DHT22;11731;48.592;8.858;2022-11-15T16:57:49;14.70;99.90
23124;DHT22;11731;48.592;8.858;2022-11-15T17:00:17;14.80;99.90
23124;DHT22;11731;48.592;8.858;2022-11-15T17:02:45;14.70;99.90
23124;DHT22;11731;48.592;8.858;2022-11-15T17:05:13;14.60;99.90
23124;DHT22;11731;48.592;8.858;2022-11-15T17:07:42;14.70;99.90
23124;DHT22;11731;48.592;8.858;2022-11-15T17:10:10;14.80;99.90
23124;DHT22;11731;48.592;8.858;2022-11-15T17:12:37;14.80;99.90
23124;DHT22;11731;48.592;8.858;2022-11-15T17:15:05;14.80;99.90
23124;DHT22;11731;48.592;8.858;2022-11-15T17:17:32;14.80;99.90
23124;DHT22;11731;48.592;8.858;2022-11-15T17:19:59;14.70;99.90
23124;DHT22;11731;48.592;8.858;2022-11-15T17:22:29;14.70;99.90
23124;DHT22;11731;48.592;8.858;2022-11-15T17:24:58;14.70;99.90
23124;DHT22;11731;48.592;8.858;2022-11-15T17:27:25;14.80;99.90
23124;DHT22;11731;48.592;8.858;2022-11-15T17:29:52;14.70;99.90
23124;DHT22;11731;48.592;8.858;2022-11-15T17:32:19;14.70;99.90
23124;DHT22;11731;48.592;8.858;2022-11-15T17:34:45;14.70;99.90
23124;DHT22;11731;48.592;8.858;2022-11-15T17:37:12;14.70;99.90
23124;DHT22;11731;48.592;8.858;2022-11-15T17:39:39;14.70;99.90
23124;DHT22;11731;48.592;8.858;2022-11-15T17:42:08;14.50;99.90
23124;DHT22;11731;48.592;8.858;2022-11-15T17:44:35;14.50;99.90
23124;DHT22;11731;48.592;8.858;2022-11-15T17:47:02;14.60;99.90
23124;DHT22;11731;48.592;8.858;2022-11-15T17:49:29;14.40;99.90
23124;DHT22;11731;48.592;8.858;2022-11-15T17:51:56;14.30;99.90